Salonica, Greece
Current Conditions -  °F | °C
As of 6:50 PM on Wednesday 22 Oct 2014 (Local Time) from LGTS Reporting Station
Scattered Clouds Scattered Clouds  
Wind Chill: 68°   Ceiling: Unl
Heat Index: 68°   Visibility: 6mi
Dew Point: 55°   Wind: 9mph
Humidity: 64%   Direction: 150°SSE
Pressure: 29.62"   Gusts: NA
Location:  40.52°N, 22.97°E
Report Text: LGTS 221550Z 15008KT 9999 FEW020 SCT180 20/13 Q1003 NOSIG
Loading
Personal Weather Stations






























Interactive Weather Map New forecast layout! Learn more

10-Day Weather Forecast

Advertisements
Track Severe Weather on mobile